createdAt,value
2018-01-21T19:50:48.009Z,52.40
2018-01-21T19:53:16.433Z,54.93
2018-01-21T19:55:44.827Z,39.93
2018-01-21T19:58:13.313Z,30.63
2018-01-21T20:00:41.714Z,26.87
2018-01-21T20:03:10.118Z,74.63
2018-01-21T20:05:38.576Z,40.77
2018-01-21T20:08:07.006Z,35.20
2018-01-21T20:10:35.425Z,45.60
2018-01-21T20:13:07.836Z,30.20
2018-01-21T20:15:36.237Z,27.67
2018-01-21T20:18:04.674Z,25.53
2018-01-21T20:20:33.106Z,31.27
2018-01-21T20:23:01.513Z,28.00
2018-01-21T20:25:29.945Z,34.10
2018-01-21T20:27:58.405Z,28.97
2018-01-21T20:30:26.814Z,32.40
2018-01-21T20:32:55.223Z,29.80
2018-01-21T20:35:23.660Z,25.60
2018-01-21T20:37:52.045Z,25.13
2018-01-21T20:40:20.434Z,29.00
2018-01-21T20:42:48.910Z,26.10
2018-01-21T20:45:17.334Z,48.13
2018-01-21T20:47:45.725Z,27.73
2018-01-21T20:50:14.158Z,29.37
2018-01-21T20:52:46.533Z,27.80
2018-01-21T20:55:14.966Z,26.27
2018-01-21T20:57:43.382Z,26.57
2018-01-21T21:00:11.782Z,28.77
2018-01-21T21:02:40.235Z,26.33
2018-01-21T21:05:08.650Z,29.07
2018-01-21T21:07:37.381Z,26.87
2018-01-21T21:10:05.835Z,24.50
2018-01-21T21:12:34.259Z,24.73
2018-01-21T21:15:02.654Z,28.77
2018-01-21T21:17:31.119Z,26.70
2018-01-21T21:19:59.545Z,31.03
2018-01-21T21:22:27.930Z,26.37
2018-01-21T21:24:56.404Z,25.17
2018-01-21T21:27:24.815Z,26.57
2018-01-21T21:29:53.234Z,25.67
2018-01-21T21:32:21.676Z,24.00
2018-01-21T21:34:50.109Z,26.30
2018-01-21T21:37:18.733Z,22.70
2018-01-21T21:39:47.198Z,22.87
2018-01-21T21:42:15.614Z,26.40
2018-01-21T21:44:44.001Z,26.00
2018-01-21T21:47:12.487Z,25.57
2018-01-21T21:49:40.932Z,19.63
2018-01-21T21:52:09.325Z,22.30
2018-01-21T21:54:37.806Z,23.67
2018-01-21T21:57:06.210Z,21.43
2018-01-21T21:59:34.633Z,22.00
2018-01-21T22:02:03.071Z,23.00
2018-01-21T22:04:31.508Z,19.27
2018-01-21T22:06:59.897Z,19.53
2018-01-21T22:09:28.461Z,23.93
2018-01-21T22:11:56.873Z,20.40
2018-01-21T22:14:25.269Z,20.70
2018-01-21T22:16:53.753Z,25.10
2018-01-21T22:19:22.167Z,20.63
2018-01-21T22:21:50.578Z,19.37
2018-01-21T22:24:19.029Z,20.90
2018-01-21T22:26:47.432Z,19.87
2018-01-21T22:29:15.843Z,18.60
2018-01-21T22:31:44.270Z,15.73
2018-01-21T22:34:12.657Z,17.30
2018-01-21T22:36:41.050Z,19.07
2018-01-21T22:39:09.570Z,18.53
2018-01-21T22:41:37.990Z,20.77
2018-01-21T22:44:06.405Z,15.60
2018-01-21T22:46:34.886Z,18.93
2018-01-21T22:49:03.293Z,18.70
2018-01-21T22:51:31.722Z,15.43
2018-01-21T22:54:00.415Z,18.10
2018-01-21T22:56:28.853Z,15.50
2018-01-21T22:58:57.285Z,16.67
2018-01-21T23:01:25.750Z,17.23
2018-01-21T23:03:54.142Z,18.67
2018-01-21T23:06:22.568Z,18.37
2018-01-21T23:08:51.026Z,16.40
2018-01-21T23:11:19.417Z,16.70
2018-01-21T23:13:47.837Z,16.73
2018-01-21T23:16:16.318Z,16.80
2018-01-21T23:18:44.726Z,17.30
2018-01-21T23:21:13.126Z,18.30
2018-01-21T23:23:41.581Z,17.93
2018-01-21T23:26:09.991Z,17.53
2018-01-21T23:28:38.391Z,16.90
2018-01-21T23:31:06.828Z,18.20
2018-01-21T23:33:35.259Z,22.10
2018-01-21T23:36:03.658Z,18.67
2018-01-21T23:38:32.230Z,19.87
2018-01-21T23:41:00.656Z,19.70
2018-01-21T23:43:29.093Z,17.23
2018-01-21T23:45:57.556Z,15.07
2018-01-21T23:48:25.978Z,17.07
2018-01-21T23:50:54.365Z,18.43
2018-01-21T23:53:22.833Z,16.87
2018-01-21T23:55:51.223Z,15.90
2018-01-21T23:58:19.632Z,16.73
